Terminal Aerodrome Forecast
Issued by NWS

Current Version | Previous Version | Graphics & Text | Print | Product List | Glossary On
Versions: 1 2 3 4 5 6 7 8 9 10 11 12 13 14 15 16 17 18 19 20 21 22 23 24 25 26 27 28 29
000
FTUS41 KRNK 191124
TAFLWB
TAF
KLWB 191124Z 1912/2012 14004KT P6SM OVC010
      TEMPO 1912/1916 4SM -SHRA OVC006
     FM191700 16008KT P6SM BKN035
      TEMPO 1917/1918 4SM -SHRA OVC020
     FM191800 21005KT P6SM VCTS BKN035CB
      TEMPO 1918/1921 2SM SHRA OVC007
     FM200400 24003KT 1SM BR OVC004=

USA.gov is the U.S. government's official web portal to all federal, state and local government web resources and services.